createdAt,value
2023-04-05T00:00:35.107Z,100126.84
2023-04-05T00:03:13.439Z,100119.06
2023-04-05T00:05:46.388Z,100122.81
2023-04-05T00:08:24.208Z,100109.22
2023-04-05T00:10:52.177Z,100122.41
2023-04-05T00:13:31.569Z,100110.44
2023-04-05T00:16:03.129Z,100115.81
2023-04-05T00:18:34.847Z,100112.53
2023-04-05T00:21:02.942Z,100117.06
2023-04-05T00:23:38.053Z,100113.00
2023-04-05T00:26:06.384Z,100109.25
2023-04-05T00:28:36.819Z,100107.34
2023-04-05T00:31:08.978Z,100111.72
2023-04-05T00:33:37.968Z,100120.94
2023-04-05T00:36:12.993Z,100114.59
2023-04-05T00:38:42.218Z,100106.63
2023-04-05T00:41:12.315Z,100110.78
2023-04-05T00:43:44.255Z,100114.88
2023-04-05T00:46:14.277Z,100113.25
2023-04-05T00:48:43.064Z,100104.59
2023-04-05T00:51:12.068Z,100114.00
2023-04-05T00:53:43.589Z,100117.09
2023-04-05T00:56:14.131Z,100123.41
2023-04-05T00:58:52.275Z,100114.41
2023-04-05T01:01:23.097Z,100117.44
2023-04-05T01:04:03.648Z,100106.06
2023-04-05T01:06:58.767Z,100109.03
2023-04-05T01:09:54.306Z,100099.38
2023-04-05T01:12:25.087Z,100103.44
2023-04-05T01:14:55.985Z,100096.97
2023-04-05T01:17:28.659Z,100099.28
2023-04-05T01:20:02.142Z,100101.38
2023-04-05T01:22:49.522Z,100099.56
2023-04-05T01:25:41.845Z,100103.25
2023-04-05T01:28:59.410Z,100084.53
2023-04-05T01:31:36.355Z,100086.28
2023-04-05T01:34:30.730Z,100090.88
2023-04-05T01:37:07.021Z,100084.91
2023-04-05T01:39:41.844Z,100099.06
2023-04-05T01:42:14.334Z,100089.06
2023-04-05T01:44:46.613Z,100083.81
2023-04-05T01:47:18.230Z,100072.31
2023-04-05T01:49:47.415Z,100086.47
2023-04-05T01:52:15.789Z,100083.44
2023-04-05T01:54:45.217Z,100083.06
2023-04-05T01:57:13.682Z,100073.06
2023-04-05T01:59:42.279Z,100072.69
2023-04-05T02:02:14.249Z,100062.69
2023-04-05T02:04:42.819Z,100058.41
2023-04-05T02:07:13.562Z,100049.97
2023-04-05T02:09:42.215Z,100062.56
2023-04-05T02:12:10.905Z,100047.56
2023-04-05T02:14:40.381Z,100052.66
2023-04-05T02:17:08.610Z,100045.72
2023-04-05T02:19:46.784Z,100041.69
2023-04-05T02:22:16.247Z,100040.97
2023-04-05T02:25:13.829Z,100048.28
2023-04-05T02:27:45.854Z,100059.38
2023-04-05T02:30:15.975Z,100048.66
2023-04-05T02:32:47.770Z,100053.53
2023-04-05T02:35:19.812Z,100046.94
2023-04-05T02:37:48.272Z,100036.31
2023-04-05T02:40:20.054Z,100034.50
2023-04-05T02:42:48.215Z,100030.47
2023-04-05T02:45:16.465Z,100035.09
2023-04-05T02:47:45.668Z,100029.00
2023-04-05T02:50:17.347Z,100033.75
2023-04-05T02:52:49.225Z,100028.00
2023-04-05T02:55:17.778Z,100033.00
2023-04-05T02:57:46.956Z,100027.63
2023-04-05T03:00:16.259Z,100025.91
2023-04-05T03:02:44.555Z,100030.56
2023-04-05T03:05:14.377Z,100033.84
2023-04-05T03:07:47.316Z,100032.75
2023-04-05T03:10:19.630Z,100021.28
2023-04-05T03:12:48.570Z,100024.97
2023-04-05T03:15:17.034Z,100027.28
2023-04-05T03:17:49.687Z,100009.47
2023-04-05T03:20:17.951Z,100014.22
2023-04-05T03:22:47.525Z,100008.38
2023-04-05T03:25:17.796Z,100013.16
2023-04-05T03:27:46.949Z,100003.25
2023-04-05T03:30:18.729Z,99999.97
2023-04-05T03:33:04.772Z,99995.56
2023-04-05T03:35:33.271Z,99991.63
2023-04-05T03:38:02.072Z,99987.06
2023-04-05T03:40:30.302Z,99971.22
2023-04-05T03:43:00.903Z,99966.94
2023-04-05T03:45:30.835Z,99981.28
2023-04-05T03:47:59.894Z,99975.84
2023-04-05T03:50:28.696Z,99968.34
2023-04-05T03:53:01.238Z,99966.41
2023-04-05T03:55:32.643Z,99961.84
2023-04-05T03:58:01.221Z,99972.66
2023-04-05T04:00:31.449Z,99961.56
2023-04-05T04:03:07.982Z,99955.44
2023-04-05T04:05:40.257Z,99942.03
2023-04-05T04:08:10.853Z,99940.59
2023-04-05T04:10:39.282Z,99960.47
2023-04-05T04:13:09.674Z,99947.88
2023-04-05T04:15:38.060Z,99927.63
2023-04-05T04:18:06.781Z,99931.88
2023-04-05T04:20:35.809Z,99937.03
2023-04-05T04:23:05.328Z,99925.97
2023-04-05T04:25:33.459Z,99930.25
2023-04-05T04:28:02.063Z,99915.44
2023-04-05T04:30:30.452Z,99924.50
2023-04-05T04:33:00.236Z,99916.91
2023-04-05T04:35:30.026Z,99922.75
2023-04-05T04:38:05.434Z,99922.75
2023-04-05T04:40:39.466Z,99913.38
2023-04-05T04:43:19.353Z,99911.50
2023-04-05T04:45:48.665Z,99915.41
2023-04-05T04:48:17.620Z,99902.91
2023-04-05T04:50:48.807Z,99905.69
2023-04-05T04:53:20.087Z,99892.22
2023-04-05T04:55:51.449Z,99894.16
2023-04-05T04:58:19.895Z,99893.44
2023-04-05T05:00:50.337Z,99893.44
2023-04-05T05:03:19.724Z,99891.72
2023-04-05T05:05:50.673Z,99896.88
2023-04-05T05:08:21.358Z,99886.31
2023-04-05T05:10:57.408Z,99884.66
2023-04-05T05:13:27.921Z,99901.84
2023-04-05T05:15:56.525Z,99897.88
2023-04-05T05:18:25.790Z,99905.06
2023-04-05T05:20:54.706Z,99901.63
2023-04-05T05:23:25.521Z,99910.47
2023-04-05T05:26:01.200Z,99900.47
2023-04-05T05:28:29.293Z,99906.38
2023-04-05T05:30:57.802Z,99893.75
2023-04-05T05:33:26.800Z,99899.72
2023-04-05T05:35:55.175Z,99893.50
2023-04-05T05:38:24.017Z,99898.28
2023-04-05T05:40:59.261Z,99897.16
2023-04-05T05:43:27.436Z,99899.22
2023-04-05T05:45:55.932Z,99886.16
2023-04-05T05:48:24.203Z,99887.94
2023-04-05T05:50:52.271Z,99887.50
2023-04-05T05:53:20.980Z,99884.75
2023-04-05T05:55:51.695Z,99875.09
2023-04-05T05:58:20.254Z,99881.94
2023-04-05T06:00:50.590Z,99872.13
2023-04-05T06:03:19.549Z,99888.16
2023-04-05T06:05:58.718Z,99877.22
2023-04-05T06:08:30.571Z,99877.59
2023-04-05T06:11:01.615Z,99899.50
2023-04-05T06:13:30.602Z,99890.16
2023-04-05T06:16:06.504Z,99886.28
2023-04-05T06:18:35.298Z,99865.72
2023-04-05T06:21:03.933Z,99876.50
2023-04-05T06:23:34.412Z,99872.56
2023-04-05T06:26:03.102Z,99874.09
2023-04-05T06:28:30.778Z,99878.19
2023-04-05T06:30:59.961Z,99865.84
2023-04-05T06:33:28.567Z,99855.53
2023-04-05T06:35:56.676Z,99858.78
2023-04-05T06:38:26.737Z,99849.63
2023-04-05T06:40:57.886Z,99863.69
2023-04-05T06:43:25.863Z,99852.53
2023-04-05T06:45:56.681Z,99851.63
2023-04-05T06:48:26.054Z,99848.25
2023-04-05T06:51:02.258Z,99844.06
2023-04-05T06:53:41.215Z,99849.63
2023-04-05T06:56:11.738Z,99836.31
2023-04-05T06:58:40.738Z,99845.16
2023-04-05T07:01:09.142Z,99838.16
2023-04-05T07:03:42.849Z,99847.25
2023-04-05T07:08:56.545Z,99837.63
2023-04-05T07:11:24.998Z,99842.28
2023-04-05T07:13:55.241Z,99848.72
2023-04-05T07:16:24.385Z,99836.72
2023-04-05T07:18:52.952Z,99836.34
2023-04-05T07:21:24.773Z,99823.72
2023-04-05T07:23:56.373Z,99831.44
2023-04-05T07:26:30.741Z,99828.84
2023-04-05T07:29:00.644Z,99827.34
2023-04-05T07:31:29.673Z,99833.09
2023-04-05T07:34:01.074Z,99820.63
2023-04-05T07:36:31.237Z,99827.31
2023-04-05T07:39:02.195Z,99822.97
2023-04-05T07:41:32.216Z,99817.47
2023-04-05T07:44:02.594Z,99818.59
2023-04-05T07:46:31.476Z,99825.00
2023-04-05T07:48:59.853Z,99819.44
2023-04-05T07:51:28.748Z,99813.75
2023-04-05T07:54:01.871Z,99809.22
2023-04-05T07:56:37.498Z,99795.94
2023-04-05T07:59:05.752Z,99804.38
2023-04-05T08:01:35.640Z,99796.91
2023-04-05T08:04:03.528Z,99799.53
2023-04-05T08:06:31.633Z,99798.22
2023-04-05T08:08:59.670Z,99797.63
2023-04-05T08:11:32.636Z,99793.44
2023-04-05T08:14:01.772Z,99789.56
2023-04-05T08:19:17.072Z,99775.19
2023-04-05T08:21:45.289Z,99780.34
2023-04-05T08:24:14.078Z,99768.25
2023-04-05T08:26:42.518Z,99776.31
2023-04-05T08:29:11.506Z,99777.16
2023-04-05T08:31:41.214Z,99776.91
2023-04-05T08:34:10.262Z,99765.91
2023-04-05T08:36:38.617Z,99769.91
2023-04-05T08:39:07.607Z,99794.97
2023-04-05T08:41:37.780Z,99789.47
2023-04-05T08:44:06.349Z,99772.81
2023-04-05T08:46:35.814Z,99770.09
2023-04-05T08:49:08.483Z,99768.63
2023-04-05T08:51:40.176Z,99782.91
2023-04-05T08:54:10.683Z,99776.19
2023-04-05T08:56:39.605Z,99764.00
2023-04-05T08:59:12.079Z,99759.88
2023-04-05T09:01:45.260Z,99762.69
2023-04-05T09:04:24.899Z,99773.16
2023-04-05T09:06:56.438Z,99759.00
2023-04-05T09:09:36.291Z,99771.47
2023-04-05T09:12:06.017Z,99770.34
2023-04-05T09:14:39.021Z,99760.44
2023-04-05T09:17:11.626Z,99765.69
2023-04-05T09:19:39.747Z,99768.81
2023-04-05T09:22:09.054Z,99759.84
2023-04-05T09:24:42.508Z,99768.41
2023-04-05T09:27:15.154Z,99786.47
2023-04-05T09:29:45.347Z,99768.34
2023-04-05T09:32:16.794Z,99794.69
2023-04-05T09:34:45.013Z,99775.19
2023-04-05T09:37:21.208Z,99770.16
2023-04-05T09:39:52.165Z,99770.84
2023-04-05T09:42:23.461Z,99776.59
2023-04-05T09:45:08.486Z,99772.19
2023-04-05T09:47:37.993Z,99770.84
2023-04-05T09:50:15.044Z,99785.69
2023-04-05T09:52:44.155Z,99799.97
2023-04-05T09:55:12.580Z,99798.25
2023-04-05T09:57:44.280Z,99804.09
2023-04-05T10:00:21.589Z,99788.63
2023-04-05T10:02:54.901Z,99796.75
2023-04-05T10:05:29.243Z,99793.19
2023-04-05T10:07:57.589Z,99794.53
2023-04-05T10:10:26.790Z,99788.31
2023-04-05T10:12:56.730Z,99805.34
2023-04-05T10:15:26.970Z,99802.22
2023-04-05T10:18:01.829Z,99786.44
2023-04-05T10:20:33.446Z,99796.38
2023-04-05T10:23:13.781Z,99782.75
2023-04-05T10:25:56.359Z,99781.16
2023-04-05T10:28:35.894Z,99776.63
2023-04-05T10:31:37.092Z,99775.50
2023-04-05T10:34:24.383Z,99768.38
2023-04-05T10:37:04.901Z,99766.13
2023-04-05T10:39:43.792Z,99751.91
2023-04-05T10:42:22.932Z,99752.31
2023-04-05T10:45:00.417Z,99756.47
2023-04-05T10:47:29.612Z,99756.94
2023-04-05T10:50:04.857Z,99750.75
2023-04-05T10:52:33.558Z,99760.34
2023-04-05T10:55:03.927Z,99754.94
2023-04-05T10:57:32.675Z,99738.16
2023-04-05T11:00:01.956Z,99746.28
2023-04-05T11:02:46.503Z,99754.53
2023-04-05T11:05:38.009Z,99750.97
2023-04-05T11:08:10.055Z,99753.78
2023-04-05T11:10:52.093Z,99748.00
2023-04-05T11:13:51.708Z,99745.47
2023-04-05T11:16:21.062Z,99742.03
2023-04-05T11:18:56.704Z,99727.47
2023-04-05T11:21:26.600Z,99732.69
2023-04-05T11:24:06.991Z,99709.94
2023-04-05T11:26:56.356Z,99699.72
2023-04-05T11:29:49.834Z,99695.06
2023-04-05T11:32:18.675Z,99687.59
2023-04-05T11:35:03.959Z,99684.75
2023-04-05T11:38:12.390Z,99677.72
2023-04-05T11:40:43.917Z,99680.69
2023-04-05T11:43:12.833Z,99681.44
2023-04-05T11:45:44.309Z,99672.66
2023-04-05T11:48:15.747Z,99657.75
2023-04-05T11:50:45.780Z,99668.88
2023-04-05T11:53:16.379Z,99667.38
2023-04-05T11:55:52.271Z,99667.03
2023-04-05T11:58:25.612Z,99670.22
2023-04-05T12:01:06.850Z,99668.41
2023-04-05T12:03:37.495Z,99673.59
2023-04-05T12:06:08.090Z,99678.75
2023-04-05T12:08:40.870Z,99678.63
2023-04-05T12:11:12.258Z,99676.34
2023-04-05T12:13:40.858Z,99678.44
2023-04-05T12:16:09.943Z,99679.09
2023-04-05T12:18:39.435Z,99677.44
2023-04-05T12:21:11.509Z,99686.28
2023-04-05T12:23:39.934Z,99686.22
2023-04-05T12:26:08.947Z,99694.78
2023-04-05T12:29:09.733Z,99686.56
2023-04-05T12:31:47.758Z,99693.44
2023-04-05T12:34:16.792Z,99701.50
2023-04-05T12:36:46.850Z,99698.41
2023-04-05T12:39:17.706Z,99699.31
2023-04-05T12:41:57.475Z,99709.13
2023-04-05T12:44:30.832Z,99711.97
2023-04-05T12:47:09.559Z,99710.69
2023-04-05T12:49:40.562Z,99716.47
2023-04-05T12:52:09.170Z,99713.22
2023-04-05T12:54:46.528Z,99723.91
2023-04-05T12:57:14.836Z,99715.16
2023-04-05T12:59:44.627Z,99709.31
2023-04-05T13:02:13.262Z,99709.81
2023-04-05T13:04:41.743Z,99701.88
2023-04-05T13:07:12.952Z,99691.69
2023-04-05T13:09:41.375Z,99693.84
2023-04-05T13:12:09.836Z,99687.06
2023-04-05T13:14:41.065Z,99685.13
2023-04-05T13:17:09.183Z,99679.19
2023-04-05T13:19:39.816Z,99681.13
2023-04-05T13:22:09.268Z,99678.78
2023-04-05T13:24:37.354Z,99682.09
2023-04-05T13:27:08.328Z,99673.63
2023-04-05T13:29:37.253Z,99667.63
2023-04-05T13:32:06.365Z,99677.94
2023-04-05T13:34:34.425Z,99683.34
2023-04-05T13:37:02.496Z,99675.44
2023-04-05T13:39:32.863Z,99682.28
2023-04-05T13:42:02.358Z,99678.34
2023-04-05T13:44:38.833Z,99675.16
2023-04-05T13:47:07.863Z,99664.25
2023-04-05T13:49:36.834Z,99676.56
2023-04-05T13:52:05.971Z,99682.84
2023-04-05T13:54:33.898Z,99687.81
2023-04-05T13:57:08.972Z,99682.31
2023-04-05T13:59:37.513Z,99691.59
2023-04-05T14:02:12.242Z,99691.66
2023-04-05T14:04:41.339Z,99691.16
2023-04-05T14:07:12.256Z,99686.78
2023-04-05T14:09:40.742Z,99693.97
2023-04-05T14:12:11.234Z,99699.69
2023-04-05T14:14:42.684Z,99711.66
2023-04-05T14:17:17.182Z,99733.16
2023-04-05T14:19:47.924Z,99726.97
2023-04-05T14:22:16.547Z,99733.44
2023-04-05T14:24:48.181Z,99722.09
2023-04-05T14:27:16.638Z,99725.81
2023-04-05T14:29:47.785Z,99730.94
2023-04-05T14:32:16.143Z,99733.84
2023-04-05T14:34:44.312Z,99745.53
2023-04-05T14:37:12.679Z,99739.94
2023-04-05T14:39:45.447Z,99733.09
2023-04-05T14:42:14.153Z,99739.34
2023-04-05T14:44:42.279Z,99736.47
2023-04-05T14:47:10.676Z,99748.47
2023-04-05T14:49:38.792Z,99744.00
2023-04-05T14:52:07.255Z,99751.16
2023-04-05T14:54:35.511Z,99750.22
2023-04-05T14:57:03.932Z,99748.78
2023-04-05T14:59:32.684Z,99747.00
2023-04-05T15:02:01.462Z,99747.09
2023-04-05T15:04:31.204Z,99745.53
2023-04-05T15:06:59.559Z,99744.78
2023-04-05T15:09:28.035Z,99758.97
2023-04-05T15:11:57.100Z,99760.66
2023-04-05T15:14:31.809Z,99753.84
2023-04-05T15:17:00.888Z,99754.03
2023-04-05T15:19:30.881Z,99754.31
2023-04-05T15:22:02.324Z,99751.06
2023-04-05T15:24:37.918Z,99755.72
2023-04-05T15:27:09.031Z,99755.63
2023-04-05T15:29:42.605Z,99747.59
2023-04-05T15:32:11.178Z,99755.81
2023-04-05T15:34:40.796Z,99764.78
2023-04-05T15:37:10.681Z,99759.81
2023-04-05T15:39:39.072Z,99760.78
2023-04-05T15:42:07.176Z,99764.78
2023-04-05T15:44:35.043Z,99761.69
2023-04-05T15:47:04.189Z,99759.44
2023-04-05T15:49:34.390Z,99770.69
2023-04-05T15:52:03.082Z,99770.31
2023-04-05T15:54:34.366Z,99766.03
2023-04-05T15:57:04.838Z,99773.97
2023-04-05T15:59:32.784Z,99777.69
2023-04-05T16:02:01.130Z,99774.97
2023-04-05T16:04:30.736Z,99771.88
2023-04-05T16:07:00.626Z,99777.28
2023-04-05T16:09:30.476Z,99783.53
2023-04-05T16:12:00.064Z,99788.34
2023-04-05T16:14:34.676Z,99780.59
2023-04-05T16:17:03.049Z,99780.72
2023-04-05T16:19:32.299Z,99780.88
2023-04-05T16:22:03.716Z,99784.28
2023-04-05T16:24:33.689Z,99781.19
2023-04-05T16:27:06.245Z,99775.69
2023-04-05T16:29:36.462Z,99771.97
2023-04-05T16:32:08.494Z,99773.72
2023-04-05T16:34:37.311Z,99779.53
2023-04-05T16:37:05.912Z,99774.31
2023-04-05T16:39:36.985Z,99778.69
2023-04-05T16:42:05.351Z,99772.00
2023-04-05T16:44:33.604Z,99774.28
2023-04-05T16:47:06.870Z,99777.25
2023-04-05T16:49:35.419Z,99773.03
2023-04-05T16:52:03.757Z,99776.69
2023-04-05T16:54:40.801Z,99762.22
2023-04-05T16:57:09.590Z,99771.16
2023-04-05T16:59:38.694Z,99776.56
2023-04-05T17:02:07.750Z,99769.75
2023-04-05T17:04:37.778Z,99777.13
2023-04-05T17:07:06.586Z,99775.72
2023-04-05T17:09:35.358Z,99774.84
2023-04-05T17:12:04.745Z,99777.25
2023-04-05T17:14:34.559Z,99785.91
2023-04-05T17:17:02.582Z,99790.28
2023-04-05T17:19:31.013Z,99792.16
2023-04-05T17:22:02.312Z,99798.69
2023-04-05T17:24:37.938Z,99799.38
2023-04-05T17:27:10.116Z,99799.53
2023-04-05T17:29:40.017Z,99812.59
2023-04-05T17:32:08.607Z,99812.34
2023-04-05T17:34:37.161Z,99815.31
2023-04-05T17:37:07.324Z,99825.41
2023-04-05T17:39:37.586Z,99829.63
2023-04-05T17:42:05.785Z,99834.03
2023-04-05T17:44:37.080Z,99824.38
2023-04-05T17:47:09.031Z,99827.47
2023-04-05T17:49:38.500Z,99819.38
2023-04-05T17:52:13.064Z,99832.03
2023-04-05T17:54:42.583Z,99836.16
2023-04-05T17:57:18.332Z,99828.06
2023-04-05T17:59:46.634Z,99831.19
2023-04-05T18:02:15.477Z,99830.34
2023-04-05T18:04:44.781Z,99842.09
2023-04-05T18:07:13.141Z,99842.00
2023-04-05T18:09:46.445Z,99839.13
2023-04-05T18:12:14.791Z,99835.88
2023-04-05T18:14:46.296Z,99842.09
2023-04-05T18:17:15.768Z,99838.44
2023-04-05T18:19:45.202Z,99832.91
2023-04-05T18:22:13.943Z,99832.63
2023-04-05T18:24:48.061Z,99837.88
2023-04-05T18:27:16.473Z,99835.88
2023-04-05T18:29:49.040Z,99836.59
2023-04-05T18:32:32.313Z,99834.06
2023-04-05T18:35:00.808Z,99839.47
2023-04-05T18:37:29.309Z,99841.00
2023-04-05T18:39:57.740Z,99842.69
2023-04-05T18:42:26.253Z,99849.94
2023-04-05T18:44:54.551Z,99831.22
2023-04-05T18:47:22.864Z,99834.91
2023-04-05T18:49:52.606Z,99838.00
2023-04-05T18:52:26.752Z,99837.59
2023-04-05T18:54:58.772Z,99836.63
2023-04-05T18:57:30.177Z,99830.22
2023-04-05T18:59:58.526Z,99822.13
2023-04-05T19:02:27.159Z,99831.63
2023-04-05T19:04:55.665Z,99830.91
2023-04-05T19:07:24.377Z,99825.06
2023-04-05T19:09:52.693Z,99831.47
2023-04-05T19:12:21.552Z,99827.75
2023-04-05T19:16:47.412Z,99822.81
2023-04-05T19:19:16.561Z,99823.38
2023-04-05T19:21:52.934Z,99829.66
2023-04-05T19:24:22.543Z,99825.94
2023-04-05T19:26:51.297Z,99818.41
2023-04-05T19:29:21.594Z,99815.84
2023-04-05T19:32:14.288Z,99814.88
2023-04-05T19:34:45.716Z,99823.50
2023-04-05T19:37:18.982Z,99821.53
2023-04-05T19:39:48.614Z,99818.53
2023-04-05T19:42:17.428Z,99813.56
2023-04-05T19:44:55.440Z,99815.53
2023-04-05T19:47:27.312Z,99822.34
2023-04-05T19:49:57.101Z,99816.94
2023-04-05T19:52:44.331Z,99824.06
2023-04-05T19:55:34.186Z,99835.38
2023-04-05T19:58:10.769Z,99834.41
2023-04-05T20:00:52.918Z,99825.75
2023-04-05T20:03:37.611Z,99816.25
2023-04-05T20:06:10.182Z,99823.06
2023-04-05T20:08:41.815Z,99816.50
2023-04-05T20:11:17.423Z,99821.63
2023-04-05T20:13:57.291Z,99833.53
2023-04-05T20:16:37.396Z,99820.59
2023-04-05T20:19:08.173Z,99818.19
2023-04-05T20:21:40.297Z,99827.84
2023-04-05T20:24:12.979Z,99824.72
2023-04-05T20:26:46.557Z,99820.84
2023-04-05T20:29:17.644Z,99824.00
2023-04-05T20:31:47.308Z,99817.91
2023-04-05T20:34:20.407Z,99810.34
2023-04-05T20:36:51.197Z,99820.28
2023-04-05T20:39:23.915Z,99820.44
2023-04-05T20:41:52.846Z,99818.44
2023-04-05T20:44:28.928Z,99821.56
2023-04-05T20:46:58.580Z,99822.03
2023-04-05T20:49:28.632Z,99827.97
2023-04-05T20:52:01.057Z,99820.47
2023-04-05T20:54:29.787Z,99822.47
2023-04-05T20:56:58.878Z,99826.56
2023-04-05T20:59:28.797Z,99818.34
2023-04-05T21:01:56.934Z,99828.72
2023-04-05T21:04:29.357Z,99827.16
2023-04-05T21:06:58.984Z,99819.19
2023-04-05T21:09:29.560Z,99823.19
2023-04-05T21:11:59.235Z,99819.38
2023-04-05T21:14:28.536Z,99821.09
2023-04-05T21:16:56.792Z,99820.50
2023-04-05T21:19:26.261Z,99829.47
2023-04-05T21:21:54.666Z,99828.59
2023-04-05T21:24:22.893Z,99825.03
2023-04-05T21:26:51.250Z,99822.50
2023-04-05T21:29:23.436Z,99820.50
2023-04-05T21:31:51.778Z,99826.88
2023-04-05T21:34:20.302Z,99816.53
2023-04-05T21:36:50.001Z,99823.19
2023-04-05T21:39:18.195Z,99811.88
2023-04-05T21:41:46.953Z,99824.34
2023-04-05T21:44:20.936Z,99821.22
2023-04-05T21:46:49.888Z,99823.50
2023-04-05T21:49:25.292Z,99827.03
2023-04-05T21:51:53.675Z,99827.16
2023-04-05T21:54:22.113Z,99830.75
2023-04-05T21:56:52.995Z,99837.28
2023-04-05T21:59:22.176Z,99837.28
2023-04-05T22:02:01.842Z,99829.03
2023-04-05T22:04:31.377Z,99826.03
2023-04-05T22:07:00.131Z,99826.75
2023-04-05T22:09:29.129Z,99830.91
2023-04-05T22:12:02.351Z,99822.53
2023-04-05T22:14:31.124Z,99824.50
2023-04-05T22:16:59.428Z,99822.25
2023-04-05T22:19:32.785Z,99826.50
2023-04-05T22:22:04.169Z,99817.41
2023-04-05T22:24:32.500Z,99813.72
2023-04-05T22:27:01.348Z,99822.09
2023-04-05T22:29:29.731Z,99817.56
2023-04-05T22:32:00.321Z,99817.41
2023-04-05T22:34:29.169Z,99824.22
2023-04-05T22:36:57.873Z,99823.06
2023-04-05T22:39:26.685Z,99823.94
2023-04-05T22:41:55.390Z,99825.06
2023-04-05T22:44:24.966Z,99828.63
2023-04-05T22:46:55.379Z,99837.72
2023-04-05T22:49:23.387Z,99834.72
2023-04-05T22:51:51.632Z,99832.03
2023-04-05T22:54:19.651Z,99832.88
2023-04-05T22:56:47.913Z,99841.66
2023-04-05T22:59:20.474Z,99831.44
2023-04-05T23:01:51.023Z,99844.31
2023-04-05T23:04:19.440Z,99840.66
2023-04-05T23:06:48.092Z,99839.78
2023-04-05T23:09:16.690Z,99838.22
2023-04-05T23:11:47.309Z,99838.53
2023-04-05T23:14:16.565Z,99834.66
2023-04-05T23:16:46.320Z,99845.47
2023-04-05T23:19:17.151Z,99838.09
2023-04-05T23:21:45.827Z,99845.16
2023-04-05T23:24:14.271Z,99847.31
2023-04-05T23:26:42.483Z,99853.41
2023-04-05T23:29:14.944Z,99850.91
2023-04-05T23:31:43.780Z,99855.72
2023-04-05T23:34:15.088Z,99852.03
2023-04-05T23:36:46.788Z,99855.72
2023-04-05T23:39:15.420Z,99854.31
2023-04-05T23:41:43.733Z,99850.91
2023-04-05T23:44:12.096Z,99844.09
2023-04-05T23:47:05.479Z,99838.84
2023-04-05T23:49:34.348Z,99847.06
2023-04-05T23:52:02.784Z,99845.34
2023-04-05T23:54:30.902Z,99850.03
2023-04-05T23:56:59.817Z,99846.22
2023-04-05T23:59:27.954Z,99855.16
